Aérodrome :
LOGIN :

S'inscrire | Disclaimer

   EN    FR    IT 

 










Légende :    VFR   VFR Marginal   IFR   IFR Intensif   IFR Très Intensif
Visi : 
Plafond : 
>= 8 km
>= 3000ft
5 à 8 km
1000 à 3000 ft
1500m à 5 km
500 à 1000 ft
800 à 1500m
200 à 500 ft
< 800m
< 200 ft
Symboles :   Orages  Brouillard  Fortes neiges  Fortes précipitations  Vent > 20 kt
SIGMETs :   Divers  Orages  Givrage  Turbulence  Onde Orograph.  Cendres Volcan.






- Altitude de l'aérodrome : 172 ft
- Code IATA : ODS


UKOO - Odesa

DERNIER METAR :
  • 201830Z 09004MPS 060V130 6000 OVC005 05/04 Q1020 R16/090060 NOSIG

METARs EXPIRÉS :
  • 201800Z 11004MPS 5000 BR OVC005 05/04 Q1020 R16/090060 NOSIG
  • 201730Z 10004MPS 6000 OVC005 04/04 Q1020 R16/090060 NOSIG
  • 201700Z 10005MPS 060V120 5000 BR OVC005 04/04 Q1020 R16/090060 NOSIG
  • 201630Z 09005MPS 2100 1400SE R16/P2000N BR OVC002 04/03 Q1019 R16/090060 NOSIG
  • 201616Z 09005MPS 3700 BR OVC002 04/03 Q1019 R16/090060 NOSIG
  • 201600Z 09005MPS 2200 BR OVC002 04/03 Q1019 R16/090060 NOSIG

TAF TAF UKOO
Valide du 20 à 18h jusqu'au 21 à 18h UTC


201713Z 2018/2118 08003MPS 2100 BR BKN005 SCT015CB TX07/2112Z TN00/2105Z
TEMPO 2018/2105 05005MPS 0300 FG VV002
BECMG 2105/2106 05003MPS 6000 NSW BKN007 SCT015CB
BECMG 2115/2116 10003MPS 2100 BR



MET'MAP, la Météo Aéronautique d'un coup d'oeil ! - Copyright ORBIFLY Décembre 2007 - Disclaimer

ORBIFLY MET'MAP TEAM :

Programmation & Développement : Alexandra Zaïnal
Sur une idée originale de : Baudouin d'Aumeries
Assistance à la programmation : Marc-Olivier Méhu
Soutien technique & logistique : Manuel Goepfert

Contact : metmap@orbifly.com




SOURCES & CREDITS :

   NOAA